Time;durP1;ratioP1;P1;durP2;ratioP2;P2;SDS_P1;SDS_P2;PMS_P1;PMS_P2;Temp;Humidity;BMP_temperature;BMP_pressure;BME280_temperature;BME280_humidity;BME280_pressure;Samples;Min_cycle;Max_cycle;Signal;HPM_P1;HPM_P2
2022/11/08 00:01:31;;;;;;;;;;;;;;;20.11;47.04;95586.31;6112869;19;2338;-69
2022/11/08 00:03:35;;;;;;;;;;;;;;;20.10;46.85;95585.50;6110760;19;1813;-69
2022/11/08 00:14:45;;;;;;;;;;;;;;;20.11;47.11;95578.31;6107506;19;1877;-69
2022/11/08 00:16:48;;;;;;;;;;;;;;;20.10;47.10;95580.16;6125214;19;1936;-69
2022/11/08 00:18:52;;;;;;;;;;;;;;;20.11;46.87;95579.13;6124310;19;2138;-69
2022/11/08 00:20:55;;;;;;;;;;;;;;;20.10;47.16;95576.66;6123721;19;2005;-69
2022/11/08 00:23:02;;;;;;;;;;;;;;;20.10;46.78;95569.47;6122736;19;2125;-69
2022/11/08 00:25:06;;;;;;;;;;;;;;;20.10;47.05;95569.47;6100572;19;2086;-69
2022/11/08 00:27:10;;;;;;;;;;;;;;;20.10;47.12;95571.34;6122890;19;2030;-69
2022/11/08 00:29:14;;;;;;;;;;;;;;;20.10;47.28;95577.50;6122704;19;2300;-69
2022/11/08 00:31:17;;;;;;;;;;;;;;;20.09;47.25;95570.53;6123623;19;2065;-69
2022/11/08 00:33:20;;;;;;;;;;;;;;;20.11;47.09;95570.31;6123805;19;1754;-69
2022/11/08 00:35:24;;;;;;;;;;;;;;;20.10;47.20;95566.81;6119749;19;1686;-70
2022/11/08 00:37:27;;;;;;;;;;;;;;;20.11;46.91;95570.31;6106307;19;1999;-70
2022/11/08 00:39:33;;;;;;;;;;;;;;;20.11;47.12;95570.31;6123974;19;2033;-69
2022/11/08 00:41:36;;;;;;;;;;;;;;;20.09;47.16;95569.69;6121472;19;2030;-70
2022/11/08 00:43:40;;;;;;;;;;;;;;;20.08;46.81;95563.50;6121877;19;1937;-69
2022/11/08 00:45:43;;;;;;;;;;;;;;;20.09;47.15;95572.38;6122579;19;2099;-69
2022/11/08 00:47:46;;;;;;;;;;;;;;;20.09;47.21;95565.19;6101196;19;1555;-69
2022/11/08 00:49:50;;;;;;;;;;;;;;;20.09;47.20;95567.03;6121995;19;1958;-70
2022/11/08 00:51:53;;;;;;;;;;;;;;;20.09;46.97;95567.84;6122673;19;1696;-70
2022/11/08 00:53:56;;;;;;;;;;;;;;;20.09;46.95;95561.69;6123296;19;1854;-70
2022/11/08 00:56:03;;;;;;;;;;;;;;;20.09;47.04;95564.38;6124118;19;2048;-69
2022/11/08 00:58:06;;;;;;;;;;;;;;;20.09;47.33;95572.38;6115705;19;2094;-69
2022/11/08 01:00:11;;;;;;;;;;;;;;;20.08;47.11;95568.03;6107255;19;1714;-70
2022/11/08 01:02:15;;;;;;;;;;;;;;;20.09;47.04;95567.03;6120760;19;2056;-70
2022/11/08 01:04:20;;;;;;;;;;;;;;;20.09;47.09;95561.69;6120780;19;1014;-70
2022/11/08 01:06:24;;;;;;;;;;;;;;;20.08;46.85;95570.69;6121837;19;2195;-70
2022/11/08 01:08:27;;;;;;;;;;;;;;;20.07;47.24;95567.22;6124293;19;2092;-70
2022/11/08 01:10:30;;;;;;;;;;;;;;;20.07;47.07;95572.53;6099425;19;2162;-70
2022/11/08 01:12:37;;;;;;;;;;;;;;;20.08;47.23;95570.69;6119740;19;1018;-70
2022/11/08 01:14:40;;;;;;;;;;;;;;;20.07;47.40;95564.53;6121294;19;1927;-69
2022/11/08 01:16:44;;;;;;;;;;;;;;;20.08;47.32;95565.38;6123361;19;2003;-70
2022/11/08 01:18:48;;;;;;;;;;;;;;;20.08;46.95;95560.84;6120696;19;1052;-69
2022/11/08 01:20:52;;;;;;;;;;;;;;;20.09;47.04;95570.53;6114516;19;2105;-68
2022/11/08 01:22:55;;;;;;;;;;;;;;;20.09;47.03;95569.69;6108027;19;1846;-68
2022/11/08 01:24:58;;;;;;;;;;;;;;;20.08;47.03;95562.69;6121099;19;2054;-70
2022/11/08 01:27:01;;;;;;;;;;;;;;;20.09;47.13;95564.38;6120361;19;1810;-70
2022/11/08 01:29:07;;;;;;;;;;;;;;;20.07;47.39;95563.72;6120825;19;2133;-70
2022/11/08 01:31:12;;;;;;;;;;;;;;;20.07;47.03;95569.06;6121599;19;2091;-70
2022/11/08 01:33:16;;;;;;;;;;;;;;;20.07;47.42;95569.88;6097457;19;2095;-69
2022/11/08 01:35:19;;;;;;;;;;;;;;;20.07;47.45;95569.06;6120344;19;2194;-70
2022/11/08 01:37:22;;;;;;;;;;;;;;;20.07;47.24;95563.72;6120968;19;2451;-69
2022/11/08 01:39:26;;;;;;;;;;;;;;;20.07;47.52;95564.53;6122735;19;1786;-70
2022/11/08 01:41:29;;;;;;;;;;;;;;;20.07;47.46;95563.72;6121905;19;2242;-68
2022/11/08 01:43:40;;;;;;;;;;;;;;;20.08;47.15;95566.19;6109221;19;2225;-68
2022/11/08 01:45:58;;;;;;;;;;;;;;;20.08;47.57;95570.69;6109044;19;2165;-68
2022/11/08 01:48:04;;;;;;;;;;;;;;;20.08;47.41;95562.69;6122349;19;2334;-68
2022/11/08 01:50:09;;;;;;;;;;;;;;;20.08;47.38;95560.03;6119972;19;1755;-68
2022/11/08 01:52:17;;;;;;;;;;;;;;;20.08;47.53;95565.38;6121272;19;2031;-68
2022/11/08 01:54:23;;;;;;;;;;;;;;;20.06;47.16;95562.91;6121681;19;1885;-68
2022/11/08 01:56:26;;;;;;;;;;;;;;;20.06;47.57;95562.06;6098329;19;1842;-68
2022/11/08 01:58:32;;;;;;;;;;;;;;;20.06;47.45;95554.91;6120823;19;1919;-68
2022/11/08 02:00:37;;;;;;;;;;;;;;;20.07;47.63;95555.72;6118468;19;2118;-68
2022/11/08 02:02:42;;;;;;;;;;;;;;;20.07;47.43;95558.38;6117703;19;2065;-67
2022/11/08 02:04:49;;;;;;;;;;;;;;;20.07;47.55;95563.72;6120523;19;2051;-67
2022/11/08 02:06:52;;;;;;;;;;;;;;;20.07;47.73;95559.22;6100649;19;1755;-70
2022/11/08 02:08:56;;;;;;;;;;;;;;;20.06;47.36;95562.91;6119943;19;1784;-71
2022/11/08 02:10:59;;;;;;;;;;;;;;;20.08;47.45;95565.38;6120675;19;2179;-69
2022/11/08 02:13:03;;;;;;;;;;;;;;;20.08;47.54;95570.69;6119717;19;1948;-69
2022/11/08 02:15:07;;;;;;;;;;;;;;;20.08;47.56;95576.84;6121397;19;2049;-69
2022/11/08 02:17:11;;;;;;;;;;;;;;;20.07;47.09;95574.41;6122110;19;1749;-74
2022/11/08 02:19:18;;;;;;;;;;;;;;;20.07;46.99;95572.53;6096566;19;1870;-69
2022/11/08 02:21:29;;;;;;;;;;;;;;;20.07;47.56;95569.06;6121754;19;1851;-69
2022/11/08 02:23:37;;;;;;;;;;;;;;;20.08;47.44;95570.69;6119952;19;2072;-69
2022/11/08 02:25:43;;;;;;;;;;;;;;;20.08;47.50;95571.50;6119828;19;1839;-69
2022/11/08 02:27:46;;;;;;;;;;;;;;;20.08;47.09;95576.84;6119965;19;2156;-69
2022/11/08 02:29:49;;;;;;;;;;;;;;;20.08;47.31;95574.19;6097633;19;2199;-68
2022/11/08 02:31:52;;;;;;;;;;;;;;;20.08;47.29;95570.69;6121992;19;2075;-69
2022/11/08 02:33:56;;;;;;;;;;;;;;;20.07;47.11;95575.22;6122205;19;2032;-69
2022/11/08 02:36:00;;;;;;;;;;;;;;;20.06;47.22;95570.91;6118444;19;1540;-70
2022/11/08 02:38:03;;;;;;;;;;;;;;;20.06;47.36;95572.72;6120924;19;2316;-70
2022/11/08 02:40:07;;;;;;;;;;;;;;;20.06;47.27;95575.38;6117327;19;2052;-69
2022/11/08 02:42:17;;;;;;;;;;;;;;;20.06;47.31;95584.25;6101967;19;2242;-69
2022/11/08 02:44:20;;;;;;;;;;;;;;;20.06;47.80;95588.72;6116727;19;1941;-70
2022/11/08 02:46:23;;;;;;;;;;;;;;;20.05;47.27;95584.44;6121182;19;2065;-69
2022/11/08 02:48:27;;;;;;;;;;;;;;;20.06;47.84;95583.41;6121388;19;2096;-69
2022/11/08 02:50:30;;;;;;;;;;;;;;;20.04;47.57;95578.28;6119763;19;1800;-68
2022/11/08 02:52:34;;;;;;;;;;;;;;;20.05;47.64;95574.56;6098173;19;1840;-68
2022/11/08 02:54:37;;;;;;;;;;;;;;;20.05;47.53;95573.75;6119761;19;1834;-68
2022/11/08 02:56:40;;;;;;;;;;;;;;;20.05;47.93;95573.75;6119193;19;1943;-68
2022/11/08 02:58:46;;;;;;;;;;;;;;;20.05;47.55;95571.09;6120578;19;1920;-69
2022/11/08 03:00:50;;;;;;;;;;;;;;;20.05;47.73;95566.56;6120301;19;1839;-69
2022/11/08 03:02:54;;;;;;;;;;;;;;;20.03;47.92;95563.28;6112193;19;2085;-68
2022/11/08 03:04:57;;;;;;;;;;;;;;;20.04;47.50;95564.94;6104459;19;2136;-69
2022/11/08 03:07:00;;;;;;;;;;;;;;;20.05;47.90;95568.41;6118825;19;2178;-68
2022/11/08 03:09:04;;;;;;;;;;;;;;;20.04;47.50;95570.28;6119570;19;1851;-69
2022/11/08 03:11:07;;;;;;;;;;;;;;;20.06;47.88;95578.06;6117755;19;2072;-68
2022/11/08 03:13:10;;;;;;;;;;;;;;;20.06;47.54;95578.06;6121824;19;1927;-69
2022/11/08 03:15:16;;;;;;;;;;;;;;;20.06;47.82;95570.06;6102083;19;1928;-69
2022/11/08 03:17:20;;;;;;;;;;;;;;;20.06;47.49;95568.25;6126326;19;1691;-69
2022/11/08 03:19:23;;;;;;;;;;;;;;;20.05;47.93;95573.75;6124914;19;1977;-69
2022/11/08 03:21:26;;;;;;;;;;;;;;;20.06;48.02;95576.25;6124094;19;2138;-68
2022/11/08 03:23:30;;;;;;;;;;;;;;;20.05;47.81;95579.91;6120970;19;1865;-68
2022/11/08 03:25:33;;;;;;;;;;;;;;;20.01;47.79;95576.00;6120416;19;1932;-68
2022/11/08 03:27:36;;;;;;;;;;;;;;;20.04;47.84;95580.13;6107157;19;1833;-69
2022/11/08 03:29:39;;;;;;;;;;;;;;;20.04;47.96;95580.94;6125516;19;2154;-69
2022/11/08 03:31:45;;;;;;;;;;;;;;;20.05;47.96;95581.75;6124438;19;2125;-69
2022/11/08 03:33:49;;;;;;;;;;;;;;;20.05;47.98;95581.75;6122991;19;1972;-69
2022/11/08 03:35:52;;;;;;;;;;;;;;;20.04;47.97;95586.28;6122122;19;954;-69
2022/11/08 03:37:57;;;;;;;;;;;;;;;20.05;47.69;95581.75;6103376;19;2081;-68
2022/11/08 03:40:00;;;;;;;;;;;;;;;20.04;48.01;95580.13;6122399;19;1052;-69
2022/11/08 03:42:04;;;;;;;;;;;;;;;20.03;48.07;95581.13;6123205;19;2114;-69
2022/11/08 03:44:07;;;;;;;;;;;;;;;20.03;48.22;95581.97;6121836;19;2174;-69
2022/11/08 03:46:11;;;;;;;;;;;;;;;20.04;48.03;95582.78;6123803;19;1984;-68
2022/11/08 03:48:17;;;;;;;;;;;;;;;19.99;47.84;95587.88;6120221;19;2086;-69
2022/11/08 03:50:20;;;;;;;;;;;;;;;20.00;48.10;95584.19;6108295;19;1825;-70
2022/11/08 03:52:24;;;;;;;;;;;;;;;20.02;47.72;95584.81;6119987;19;2026;-69
2022/11/08 03:54:27;;;;;;;;;;;;;;;20.04;47.99;95586.28;6122412;19;972;-69
2022/11/08 03:56:30;;;;;;;;;;;;;;;20.05;48.00;95590.56;6122032;19;2070;-68
2022/11/08 03:58:34;;;;;;;;;;;;;;;20.06;48.24;95586.06;6124708;19;2077;-69
2022/11/08 04:00:38;;;;;;;;;;;;;;;20.06;48.21;95586.06;6100230;19;2094;-66
2022/11/08 04:02:41;;;;;;;;;;;;;;;20.06;48.20;95583.41;6122030;19;1853;-68
2022/11/08 04:04:47;;;;;;;;;;;;;;;20.06;48.23;95583.41;6120747;19;2097;-68
2022/11/08 04:06:50;;;;;;;;;;;;;;;20.07;47.89;95585.06;6123123;19;1813;-69
2022/11/08 04:08:54;;;;;;;;;;;;;;;19.72;45.25;95582.34;6124180;19;1927;-70
2022/11/08 04:15:13;;;;;;;;;;;;;;;19.50;44.63;95589.50;6119518;19;1761;-69
2022/11/08 04:15:33;;;;;;;;;;;;;;;19.29;43.49;95586.81;6121950;19;2036;-70
2022/11/08 04:22:13;;;;;;;;;;;;;;;19.19;43.49;95582.63;6117605;19;2015;-70
2022/11/08 04:24:16;;;;;;;;;;;;;;;19.13;43.10;95577.22;6095468;19;1857;-72
2022/11/08 04:26:20;;;;;;;;;;;;;;;19.09;43.09;95583.94;6119850;19;1798;-71
2022/11/08 04:28:25;;;;;;;;;;;;;;;19.04;43.33;95579.19;6124101;19;1801;-71
2022/11/08 04:30:28;;;;;;;;;;;;;;;19.03;43.00;95569.53;6122108;19;2284;-70
2022/11/08 04:32:31;;;;;;;;;;;;;;;19.05;43.24;95569.34;6124035;19;2103;-70
2022/11/08 04:34:34;;;;;;;;;;;;;;;19.02;42.88;95577.72;6098471;19;1151;-70
2022/11/08 04:36:40;;;;;;;;;;;;;;;18.99;43.23;95577.06;6122180;19;1626;-70
2022/11/08 04:38:44;;;;;;;;;;;;;;;18.93;43.10;95572.50;6121539;19;1851;-70
2022/11/08 04:40:47;;;;;;;;;;;;;;;18.87;43.41;95575.91;6121637;19;2022;-70
2022/11/08 04:42:50;;;;;;;;;;;;;;;18.85;43.57;95577.94;6122873;19;1769;-71
2022/11/08 04:44:54;;;;;;;;;;;;;;;18.87;43.59;95575.91;6119257;19;2038;-70
2022/11/08 04:46:58;;;;;;;;;;;;;;;18.92;43.79;95586.84;6097392;19;1976;-70
2022/11/08 04:49:01;;;;;;;;;;;;;;;18.90;43.98;95572.88;6121445;19;1791;-71
2022/11/08 04:51:05;;;;;;;;;;;;;;;18.87;43.46;95575.09;6121363;19;2093;-72
2022/11/08 04:53:11;;;;;;;;;;;;;;;19.04;43.78;95578.38;6120624;19;2016;-69
2022/11/08 04:55:14;;;;;;;;;;;;;;;19.17;44.05;95573.97;6119343;19;2027;-68
2022/11/08 04:57:17;;;;;;;;;;;;;;;19.26;43.89;95590.66;6102996;19;1915;-68
2022/11/08 04:59:21;;;;;;;;;;;;;;;19.31;43.60;95585.59;6117876;19;1895;-69
2022/11/08 05:01:25;;;;;;;;;;;;;;;19.36;43.77;95582.38;6118888;19;1914;-68
2022/11/08 05:03:28;;;;;;;;;;;;;;;19.39;43.78;95577.50;6118157;19;2117;-69
2022/11/08 05:05:32;;;;;;;;;;;;;;;19.43;44.18;95589.44;6117892;19;1705;-69
2022/11/08 05:07:35;;;;;;;;;;;;;;;19.29;43.97;95592.97;6121257;19;2071;-69
2022/11/08 05:09:41;;;;;;;;;;;;;;;19.07;43.89;95600.13;6096940;19;2286;-69
2022/11/08 05:11:44;;;;;;;;;;;;;;;18.93;43.92;95595.66;6116977;19;2511;-69
2022/11/08 05:13:48;;;;;;;;;;;;;;;18.89;43.69;95600.50;6119438;19;2106;-69
2022/11/08 05:15:51;;;;;;;;;;;;;;;18.88;43.64;95601.53;6119586;19;1834;-69
2022/11/08 05:17:55;;;;;;;;;;;;;;;18.84;43.58;95594.94;6120062;19;1934;-69
2022/11/08 05:24:29;;;;;;;;;;;;;;;18.78;43.50;95606.34;6117902;19;1838;-70
2022/11/08 05:26:38;;;;;;;;;;;;;;;18.72;43.59;95597.25;6118451;19;1330;-69
2022/11/08 05:28:41;;;;;;;;;;;;;;;18.67;43.85;95606.81;6119618;19;1613;-69
2022/11/08 05:30:45;;;;;;;;;;;;;;;18.64;43.54;95593.84;6117595;19;1597;-70
2022/11/08 05:32:51;;;;;;;;;;;;;;;18.65;43.48;95588.34;6100888;19;1202;-70
2022/11/08 05:34:55;;;;;;;;;;;;;;;18.62;43.47;95591.34;6119764;19;1254;-69
2022/11/08 05:36:58;;;;;;;;;;;;;;;18.58;43.29;95603.38;6118548;19;1021;-70
2022/11/08 05:39:01;;;;;;;;;;;;;;;18.55;43.31;95615.22;6119224;19;1065;-70
2022/11/08 05:41:05;;;;;;;;;;;;;;;18.52;43.40;95617.41;6119043;19;1332;-70
2022/11/08 05:43:11;;;;;;;;;;;;;;;18.52;43.41;95610.25;6096774;19;1284;-70
2022/11/08 05:45:15;;;;;;;;;;;;;;;18.51;43.34;95611.25;6117092;19;1861;-70
2022/11/08 05:47:18;;;;;;;;;;;;;;;18.48;43.07;95606.31;6118076;19;1059;-70
2022/11/08 05:49:21;;;;;;;;;;;;;;;18.46;43.42;95608.31;6118835;19;1025;-70
2022/11/08 05:51:24;;;;;;;;;;;;;;;18.44;43.72;95602.38;6118483;19;1303;-70
2022/11/08 05:53:28;;;;;;;;;;;;;;;18.42;44.05;95606.22;6115290;19;1413;-70
2022/11/08 05:55:31;;;;;;;;;;;;;;;18.44;43.42;95605.03;6100754;19;1207;-70
2022/11/08 05:57:35;;;;;;;;;;;;;;;18.44;43.72;95598.84;6118525;19;1153;-70
2022/11/08 05:59:41;;;;;;;;;;;;;;;18.41;43.42;95601.88;6118190;19;1292;-70
2022/11/08 06:01:44;;;;;;;;;;;;;;;18.42;43.89;95606.22;6116370;19;1428;-70
2022/11/08 06:03:48;;;;;;;;;;;;;;;18.66;43.47;95618.44;6118315;19;1849;-69
2022/11/08 06:05:52;;;;;;;;;;;;;;;18.82;43.67;95618.25;6095802;19;1488;-70
2022/11/08 06:07:55;;;;;;;;;;;;;;;18.91;43.96;95617.13;6117759;19;1070;-69
2022/11/08 06:09:59;;;;;;;;;;;;;;;19.00;43.63;95616.00;6117363;19;1153;-69
2022/11/08 06:12:02;;;;;;;;;;;;;;;19.06;43.75;95619.75;6118600;19;1048;-69
2022/11/08 06:14:05;;;;;;;;;;;;;;;19.10;44.16;95622.88;6118271;19;1058;-70
2022/11/08 06:16:12;;;;;;;;;;;;;;;19.13;43.94;95630.50;6116689;19;1005;-70
2022/11/08 06:18:16;;;;;;;;;;;;;;;19.15;44.11;95625.78;6102355;19;1182;-70
2022/11/08 06:20:19;;;;;;;;;;;;;;;19.17;43.80;95629.09;6118136;19;1098;-70
2022/11/08 06:22:22;;;;;;;;;;;;;;;19.17;43.82;95629.09;6116421;19;954;-70
2022/11/08 06:24:26;;;;;;;;;;;;;;;19.19;43.78;95641.22;6115624;19;1833;-69
2022/11/08 06:26:29;;;;;;;;;;;;;;;19.21;44.17;95643.72;6116736;19;1058;-69
2022/11/08 06:28:32;;;;;;;;;;;;;;;19.22;43.74;95640.03;6093558;19;1407;-69
2022/11/08 06:30:36;;;;;;;;;;;;;;;19.24;43.93;95640.69;6117584;19;1097;-69
2022/11/08 06:32:42;;;;;;;;;;;;;;;19.26;44.38;95648.47;6116815;19;1065;-69
2022/11/08 06:34:45;;;;;;;;;;;;;;;19.27;44.35;95655.47;6118073;19;974;-69
2022/11/08 06:36:49;;;;;;;;;;;;;;;19.29;44.63;95659.59;6117072;19;1140;-69
2022/11/08 06:38:55;;;;;;;;;;;;;;;19.31;44.73;95654.88;6114649;19;997;-69
2022/11/08 06:41:00;;;;;;;;;;;;;;;19.32;44.62;95661.03;6102449;19;1691;-69
2022/11/08 06:43:03;;;;;;;;;;;;;;;19.33;44.87;95660.03;6117864;19;951;-69
2022/11/08 06:45:07;;;;;;;;;;;;;;;19.35;44.60;95665.97;6116271;19;1857;-68
2022/11/08 06:47:11;;;;;;;;;;;;;;;19.35;44.59;95661.50;6116700;19;1033;-71
2022/11/08 06:49:17;;;;;;;;;;;;;;;19.36;44.96;95668.47;6124127;19;1017;-69
2022/11/08 06:51:20;;;;;;;;;;;;;;;19.37;45.09;95667.44;6101479;19;1310;-68
2022/11/08 06:53:23;;;;;;;;;;;;;;;19.38;45.23;95669.13;6122541;19;942;-71
2022/11/08 06:55:27;;;;;;;;;;;;;;;19.39;45.30;95662.75;6123991;19;966;-69
2022/11/08 06:57:30;;;;;;;;;;;;;;;19.40;45.06;95664.41;6123667;19;1025;-69
2022/11/08 06:59:33;;;;;;;;;;;;;;;19.42;44.98;95669.56;6122281;19;1357;-71
2022/11/08 07:01:37;;;;;;;;;;;;;;;19.42;45.26;95673.03;6119797;19;1073;-68
2022/11/08 07:03:40;;;;;;;;;;;;;;;19.42;45.00;95681.03;6107315;19;1343;-69
2022/11/08 07:05:46;;;;;;;;;;;;;;;19.44;45.50;95680.88;6121674;19;1837;-69
2022/11/08 07:07:50;;;;;;;;;;;;;;;19.44;45.37;95673.69;6122880;19;1062;-69
2022/11/08 07:09:54;;;;;;;;;;;;;;;19.43;45.42;95669.38;6123064;19;1019;-68
2022/11/08 07:11:57;;;;;;;;;;;;;;;19.45;45.51;95662.00;6123633;19;1005;-68
2022/11/08 07:14:01;;;;;;;;;;;;;;;19.47;45.52;95671.66;6100743;19;1159;-70
2022/11/08 07:16:04;;;;;;;;;;;;;;;19.47;45.25;95658.34;6123085;19;1280;-70
2022/11/08 07:18:09;;;;;;;;;;;;;;;19.47;45.43;95663.69;6123041;19;1160;-70
2022/11/08 07:20:12;;;;;;;;;;;;;;;19.48;45.64;95667.97;6123688;19;1018;-70
2022/11/08 07:22:18;;;;;;;;;;;;;;;19.49;45.57;95666.97;6123942;19;1015;-71
2022/11/08 07:24:22;;;;;;;;;;;;;;;19.49;45.68;95666.97;6116186;19;1852;-71
2022/11/08 07:26:25;;;;;;;;;;;;;;;19.49;45.35;95665.16;6107168;19;1140;-70
2022/11/08 07:28:28;;;;;;;;;;;;;;;19.50;45.29;95673.97;6122775;19;954;-71
2022/11/08 07:30:32;;;;;;;;;;;;;;;19.50;45.64;95671.28;6122124;19;1157;-70
2022/11/08 07:32:35;;;;;;;;;;;;;;;19.50;45.63;95669.44;6123011;19;982;-71
2022/11/08 07:34:39;;;;;;;;;;;;;;;19.51;45.34;95671.09;6122756;19;1245;-71
2022/11/08 07:36:42;;;;;;;;;;;;;;;19.51;45.91;95671.09;6101133;19;1409;-70
2022/11/08 07:38:48;;;;;;;;;;;;;;;19.52;45.57;95674.56;6120760;19;1029;-70
2022/11/08 07:40:51;;;;;;;;;;;;;;;19.52;45.98;95670.09;6123012;19;1283;-70
2022/11/08 07:42:55;;;;;;;;;;;;;;;19.52;45.83;95671.91;6122609;19;958;-70
2022/11/08 07:44:58;;;;;;;;;;;;;;;19.53;45.97;95673.59;6121151;19;1852;-71
2022/11/08 07:47:01;;;;;;;;;;;;;;;19.52;45.76;95664.75;6119567;19;1624;-70
2022/11/08 07:49:05;;;;;;;;;;;;;;;19.54;45.67;95675.25;6105148;19;1724;-70
2022/11/08 07:51:08;;;;;;;;;;;;;;;19.53;45.97;95670.94;6122176;19;1128;-70
2022/11/08 07:53:12;;;;;;;;;;;;;;;19.55;45.81;95666.22;6121121;19;1136;-71
2022/11/08 07:55:18;;;;;;;;;;;;;;;19.55;46.01;95666.22;6122530;19;1025;-69
2022/11/08 07:57:22;;;;;;;;;;;;;;;19.55;45.75;95666.22;6121636;19;1444;-70
2022/11/08 07:59:25;;;;;;;;;;;;;;;19.55;45.90;95666.22;6097819;19;1367;-70
2022/11/08 08:01:28;;;;;;;;;;;;;;;19.55;45.61;95666.22;6121526;19;1255;-70
2022/11/08 08:03:32;;;;;;;;;;;;;;;19.56;45.93;95665.22;6121645;19;1120;-70
2022/11/08 08:05:36;;;;;;;;;;;;;;;19.56;45.77;95663.38;6120065;19;1834;-70
2022/11/08 08:07:40;;;;;;;;;;;;;;;19.56;45.93;95663.38;6121011;19;942;-70
2022/11/08 08:09:43;;;;;;;;;;;;;;;19.56;45.94;95674.06;6108462;19;1505;-70
2022/11/08 08:11:49;;;;;;;;;;;;;;;19.57;46.19;95669.53;6110040;19;1204;-70
2022/11/08 08:13:54;;;;;;;;;;;;;;;19.57;46.28;95666.88;6119311;19;1398;-70
2022/11/08 08:15:59;;;;;;;;;;;;;;;19.58;45.87;95672.03;6117746;19;1015;-70
2022/11/08 08:18:02;;;;;;;;;;;;;;;19.58;45.97;95674.69;6116922;19;1084;-70
2022/11/08 08:20:06;;;;;;;;;;;;;;;19.58;46.13;95672.03;6117053;19;1049;-70
2022/11/08 08:22:09;;;;;;;;;;;;;;;19.58;46.26;95666.69;6094635;19;1209;-70
2022/11/08 08:24:13;;;;;;;;;;;;;;;19.57;46.46;95665.03;6117414;19;1303;-70
2022/11/08 08:26:16;;;;;;;;;;;;;;;19.59;46.12;95667.53;6115249;19;1853;-70
2022/11/08 08:28:22;;;;;;;;;;;;;;;19.58;46.19;95666.69;6117147;19;971;-70
2022/11/08 08:30:26;;;;;;;;;;;;;;;19.59;46.51;95672.84;6116523;19;1025;-71
2022/11/08 08:32:29;;;;;;;;;;;;;;;19.61;46.16;95670.81;6105360;19;1307;-70
2022/11/08 08:34:33;;;;;;;;;;;;;;;19.60;46.20;95674.50;6104841;19;1303;-70
2022/11/08 08:36:36;;;;;;;;;;;;;;;19.60;46.52;95674.50;6116105;19;1022;-70
2022/11/08 08:38:40;;;;;;;;;;;;;;;19.61;46.28;95681.50;6116158;19;1029;-70
2022/11/08 08:40:43;;;;;;;;;;;;;;;19.60;46.52;95674.50;6116928;19;1647;-70
2022/11/08 08:42:46;;;;;;;;;;;;;;;19.62;46.59;95677.81;6116777;19;1149;-70
2022/11/08 08:44:52;;;;;;;;;;;;;;;19.61;46.39;95671.66;6094457;19;1849;-69
2022/11/08 08:46:57;;;;;;;;;;;;;;;19.60;46.44;95675.31;6117024;19;1370;-72
2022/11/08 08:49:00;;;;;;;;;;;;;;;19.61;46.60;95674.31;6116127;19;1113;-70
2022/11/08 08:51:03;;;;;;;;;;;;;;;19.62;46.54;95685.78;6116944;19;1290;-69
2022/11/08 08:53:07;;;;;;;;;;;;;;;19.63;46.59;95690.09;6115672;19;1022;-72
2022/11/08 08:55:10;;;;;;;;;;;;;;;19.63;46.49;95685.63;6105859;19;1191;-73
2022/11/08 08:57:14;;;;;;;;;;;;;;;19.63;46.37;95690.94;6105016;19;1298;-72
2022/11/08 08:59:17;;;;;;;;;;;;;;;19.64;46.69;95681.13;6114142;19;1378;-70
2022/11/08 09:01:23;;;;;;;;;;;;;;;19.63;46.70;95688.28;6113548;19;1463;-70
2022/11/08 09:03:26;;;;;;;;;;;;;;;19.64;46.47;95687.25;6116283;19;1017;-70
2022/11/08 09:05:30;;;;;;;;;;;;;;;19.64;46.61;95686.44;6115324;19;1862;-68
2022/11/08 09:07:33;;;;;;;;;;;;;;;19.65;46.23;95690.75;6091896;19;1489;-68
2022/11/08 09:09:36;;;;;;;;;;;;;;;19.65;46.25;95693.41;6115395;19;1149;-69
2022/11/08 09:11:40;;;;;;;;;;;;;;;19.65;46.56;95685.41;6114324;19;1125;-69
2022/11/08 09:13:43;;;;;;;;;;;;;;;19.65;46.32;95685.41;6114649;19;1136;-69
2022/11/08 09:15:46;;;;;;;;;;;;;;;19.65;46.73;95688.09;6115864;19;1293;-71
2022/11/08 09:17:54;;;;;;;;;;;;;;;19.64;46.37;95684.59;6104467;19;1157;-70
2022/11/08 09:19:58;;;;;;;;;;;;;;;19.65;46.76;95683.56;6103584;19;1291;-70
2022/11/08 09:22:01;;;;;;;;;;;;;;;19.63;46.59;95687.44;6115018;19;1277;-70
2022/11/08 09:24:05;;;;;;;;;;;;;;;19.44;46.29;95686.19;6115078;19;1042;-70
2022/11/08 09:26:08;;;;;;;;;;;;;;;19.36;45.45;95687.13;6114595;19;1853;-70
2022/11/08 09:28:12;;;;;;;;;;;;;;;19.22;45.86;95687.97;6115216;19;1057;-70
2022/11/08 09:30:15;;;;;;;;;;;;;;;19.20;45.82;95692.66;6092461;19;1292;-70
2022/11/08 09:32:18;;;;;;;;;;;;;;;19.16;45.83;95686.06;6115542;19;1100;-70
2022/11/08 09:34:24;;;;;;;;;;;;;;;19.14;45.67;95690.75;6115379;19;1002;-70
2022/11/08 09:36:27;;;;;;;;;;;;;;;19.09;45.65;95683.31;6114691;19;1010;-71
2022/11/08 09:38:31;;;;;;;;;;;;;;;19.07;45.70;95681.88;6115054;19;1053;-70
2022/11/08 09:40:39;;;;;;;;;;;;;;;19.07;45.18;95681.88;6102735;19;1538;-70
2022/11/08 09:42:51;;;;;;;;;;;;;;;19.05;45.20;95681.22;6103504;19;1109;-70
2022/11/08 09:45:13;;;;;;;;;;;;;;;19.07;45.28;95668.53;6114142;19;1176;-69
2022/11/08 09:47:20;;;;;;;;;;;;;;;19.20;45.54;95671.34;6114806;19;1082;-69
2022/11/08 09:49:28;;;;;;;;;;;;;;;19.29;45.10;95670.25;6114987;19;984;-69
2022/11/08 09:51:33;;;;;;;;;;;;;;;19.35;45.05;95665.97;6113500;19;958;-69
2022/11/08 09:53:41;;;;;;;;;;;;;;;19.39;45.42;95662.75;6091678;19;1120;-69
2022/11/08 09:55:46;;;;;;;;;;;;;;;19.41;45.04;95665.25;6115154;19;1366;-69
2022/11/08 09:57:57;;;;;;;;;;;;;;;19.42;45.20;95659.72;6114239;19;1124;-69
2022/11/08 10:00:02;;;;;;;;;;;;;;;19.45;45.14;95656.69;6113236;19;1302;-70
2022/11/08 10:02:15;;;;;;;;;;;;;;;19.47;45.21;95658.34;6114519;19;1060;-68
2022/11/08 10:04:20;;;;;;;;;;;;;;;19.48;45.25;95654.66;6091832;19;1288;-69
2022/11/08 10:06:35;;;;;;;;;;;;;;;19.49;45.58;95656.28;6112678;19;1858;-69
2022/11/08 10:08:41;;;;;;;;;;;;;;;19.52;45.31;95655.91;6114279;19;997;-69
2022/11/08 10:10:56;;;;;;;;;;;;;;;19.51;45.25;95660.44;6113803;19;1054;-69
2022/11/08 10:13:04;;;;;;;;;;;;;;;19.52;45.39;95650.59;6113539;19;1002;-69
2022/11/08 10:15:16;;;;;;;;;;;;;;;19.52;45.29;95646.09;6100366;19;1257;-70
2022/11/08 10:17:31;;;;;;;;;;;;;;;19.54;45.74;95643.25;6113541;19;1556;-69
2022/11/08 10:19:53;;;;;;;;;;;;;;;19.55;45.57;95644.91;6114342;19;1058;-70
2022/11/08 10:22:01;;;;;;;;;;;;;;;19.55;45.78;95644.91;6111551;19;1289;-69
2022/11/08 10:24:05;;;;;;;;;;;;;;;19.56;45.65;95638.56;6113342;19;1155;-69
2022/11/08 10:26:13;;;;;;;;;;;;;;;19.57;46.03;95640.22;6102096;19;1842;-69
2022/11/08 10:28:18;;;;;;;;;;;;;;;19.57;45.96;95635.72;6101415;19;1198;-72
2022/11/08 10:30:22;;;;;;;;;;;;;;;19.58;45.96;95631.22;6114093;19;1172;-69
2022/11/08 10:32:25;;;;;;;;;;;;;;;19.57;45.62;95634.88;6113252;19;1094;-70
2022/11/08 10:34:30;;;;;;;;;;;;;;;19.58;45.78;95628.56;6113752;19;992;-70
2022/11/08 10:36:37;;;;;;;;;;;;;;;19.59;46.10;95624.88;6112852;19;1111;-70
2022/11/08 10:38:47;;;;;;;;;;;;;;;19.60;45.96;95621.19;6090879;19;1554;-67
2022/11/08 10:40:56;;;;;;;;;;;;;;;19.61;46.06;95622.84;6113423;19;967;-70
2022/11/08 10:43:01;;;;;;;;;;;;;;;19.61;45.93;95617.50;6113319;19;1391;-69
2022/11/08 10:45:04;;;;;;;;;;;;;;;19.62;46.27;95621.81;6113797;19;1054;-68
2022/11/08 10:47:09;;;;;;;;;;;;;;;19.61;46.20;95615.66;6112473;19;1845;-69
2022/11/08 10:49:17;;;;;;;;;;;;;;;19.62;45.94;95624.47;6098947;19;1299;-68
2022/11/08 10:51:21;;;;;;;;;;;;;;;19.63;46.11;95612.78;6111112;19;1530;-68
2022/11/08 10:53:27;;;;;;;;;;;;;;;19.63;46.28;95618.13;6113064;19;1168;-69
2022/11/08 10:55:37;;;;;;;;;;;;;;;19.64;46.44;95611.78;6113412;19;1021;-68
2022/11/08 10:57:43;;;;;;;;;;;;;;;19.64;46.05;95611.78;6111192;19;1717;-69
2022/11/08 10:59:47;;;;;;;;;;;;;;;19.64;46.28;95612.63;6111820;19;1324;-69
2022/11/08 11:01:52;;;;;;;;;;;;;;;19.65;46.10;95608.09;6090526;19;1209;-69
2022/11/08 11:03:55;;;;;;;;;;;;;;;19.65;46.17;95597.44;6113230;19;1686;-69
2022/11/08 11:06:00;;;;;;;;;;;;;;;19.64;46.26;95601.13;6112172;19;1865;-70
2022/11/08 11:08:05;;;;;;;;;;;;;;;19.64;45.93;95596.63;6112968;19;1057;-68
2022/11/08 11:10:22;;;;;;;;;;;;;;;19.65;46.08;95602.78;6112690;19;1085;-69
2022/11/08 11:12:28;;;;;;;;;;;;;;;19.64;46.11;95590.47;6089110;19;1617;-70
2022/11/08 11:14:31;;;;;;;;;;;;;;;19.63;46.46;95600.31;6112804;19;1066;-70
2022/11/08 11:16:34;;;;;;;;;;;;;;;19.65;46.49;95598.25;6113192;19;1057;-69
2022/11/08 11:18:39;;;;;;;;;;;;;;;19.66;46.52;95591.06;6112114;19;1576;-69